sensor_id;sensor_type;location;lat;lon;timestamp;pressure;altitude;pressure_sealevel;temperature;humidity
53916;BME280;39827;49.652;18.770;2023-03-22T00:02:19;96377.28;;;6.80;100.00
53916;BME280;39827;49.652;18.770;2023-03-22T00:04:45;96364.44;;;6.83;100.00
53916;BME280;39827;49.652;18.770;2023-03-22T00:07:10;96367.97;;;6.89;100.00
53916;BME280;39827;49.652;18.770;2023-03-22T00:09:36;96355.50;;;6.84;100.00
53916;BME280;39827;49.652;18.770;2023-03-22T00:12:02;96362.69;;;6.89;100.00
53916;BME280;39827;49.652;18.770;2023-03-22T00:14:27;96362.66;;;6.72;100.00
53916;BME280;39827;49.652;18.770;2023-03-22T00:16:53;96368.47;;;6.74;100.00
53916;BME280;39827;49.652;18.770;2023-03-22T00:19:18;96369.84;;;6.76;100.00
53916;BME280;39827;49.652;18.770;2023-03-22T00:21:44;96360.00;;;6.72;100.00
53916;BME280;39827;49.652;18.770;2023-03-22T00:24:11;96347.38;;;6.57;100.00
53916;BME280;39827;49.652;18.770;2023-03-22T00:26:36;96347.91;;;6.71;100.00
53916;BME280;39827;49.652;18.770;2023-03-22T00:29:02;96356.22;;;6.80;100.00
53916;BME280;39827;49.652;18.770;2023-03-22T00:31:28;96343.59;;;6.64;100.00
53916;BME280;39827;49.652;18.770;2023-03-22T00:33:53;96341.47;;;6.49;100.00
53916;BME280;39827;49.652;18.770;2023-03-22T00:36:18;96346.53;;;6.68;100.00
53916;BME280;39827;49.652;18.770;2023-03-22T00:38:44;96334.97;;;6.69;100.00
53916;BME280;39827;49.652;18.770;2023-03-22T00:43:35;96333.16;;;6.41;100.00
53916;BME280;39827;49.652;18.770;2023-03-22T00:46:01;96335.25;;;6.56;100.00
53916;BME280;39827;49.652;18.770;2023-03-22T00:48:27;96323.44;;;6.70;100.00
53916;BME280;39827;49.652;18.770;2023-03-22T00:50:52;96317.69;;;6.73;100.00
53916;BME280;39827;49.652;18.770;2023-03-22T00:53:17;96309.94;;;6.67;100.00
53916;BME280;39827;49.652;18.770;2023-03-22T00:55:43;96308.66;;;6.69;100.00
53916;BME280;39827;49.652;18.770;2023-03-22T00:58:08;96313.06;;;6.63;100.00
53916;BME280;39827;49.652;18.770;2023-03-22T01:00:33;96311.06;;;6.71;100.00
53916;BME280;39827;49.652;18.770;2023-03-22T01:02:59;96317.66;;;6.85;100.00
53916;BME280;39827;49.652;18.770;2023-03-22T01:05:33;96305.84;;;6.88;100.00
53916;BME280;39827;49.652;18.770;2023-03-22T01:08:03;96308.50;;;6.76;100.00
53916;BME280;39827;49.652;18.770;2023-03-22T01:10:37;96315.63;;;6.75;100.00
53916;BME280;39827;49.652;18.770;2023-03-22T01:13:04;96307.81;;;6.63;100.00
53916;BME280;39827;49.652;18.770;2023-03-22T01:15:30;96295.34;;;6.76;100.00
53916;BME280;39827;49.652;18.770;2023-03-22T01:17:56;96303.59;;;6.80;100.00
53916;BME280;39827;49.652;18.770;2023-03-22T01:20:22;96298.56;;;6.78;100.00
53916;BME280;39827;49.652;18.770;2023-03-22T01:22:47;96292.78;;;6.64;100.00
53916;BME280;39827;49.652;18.770;2023-03-22T01:25:13;96294.81;;;6.74;100.00
53916;BME280;39827;49.652;18.770;2023-03-22T01:27:38;96288.50;;;6.58;100.00
53916;BME280;39827;49.652;18.770;2023-03-22T01:30:05;96282.03;;;6.65;100.00
53916;BME280;39827;49.652;18.770;2023-03-22T01:32:31;96286.84;;;6.39;100.00
53916;BME280;39827;49.652;18.770;2023-03-22T01:34:57;96288.56;;;6.34;100.00
53916;BME280;39827;49.652;18.770;2023-03-22T01:37:22;96284.91;;;6.35;100.00
53916;BME280;39827;49.652;18.770;2023-03-22T01:39:54;96291.31;;;6.10;100.00
53916;BME280;39827;49.652;18.770;2023-03-22T01:42:20;96281.91;;;6.14;100.00
53916;BME280;39827;49.652;18.770;2023-03-22T01:48:02;96286.50;;;6.07;100.00
53916;BME280;39827;49.652;18.770;2023-03-22T01:50:29;96281.78;;;5.68;100.00
53916;BME280;39827;49.652;18.770;2023-03-22T01:52:56;96279.84;;;5.51;100.00
53916;BME280;39827;49.652;18.770;2023-03-22T01:55:24;96278.69;;;5.59;100.00
53916;BME280;39827;49.652;18.770;2023-03-22T01:57:51;96275.38;;;5.52;100.00
53916;BME280;39827;49.652;18.770;2023-03-22T02:00:18;96281.44;;;5.28;100.00
53916;BME280;39827;49.652;18.770;2023-03-22T02:02:47;96268.56;;;5.27;100.00
53916;BME280;39827;49.652;18.770;2023-03-22T02:05:15;96261.56;;;5.20;100.00
53916;BME280;39827;49.652;18.770;2023-03-22T02:07:41;96256.44;;;5.26;100.00
53916;BME280;39827;49.652;18.770;2023-03-22T02:15:24;96263.59;;;4.71;100.00
53916;BME280;39827;49.652;18.770;2023-03-22T02:45:44;96254.53;;;4.24;100.00
53916;BME280;39827;49.652;18.770;2023-03-22T02:48:15;96248.88;;;4.27;100.00
53916;BME280;39827;49.652;18.770;2023-03-22T02:53:32;96251.88;;;4.42;100.00
53916;BME280;39827;49.652;18.770;2023-03-22T02:56:11;96252.69;;;4.43;100.00
53916;BME280;39827;49.652;18.770;2023-03-22T02:58:38;96253.34;;;4.38;100.00
53916;BME280;39827;49.652;18.770;2023-03-22T03:01:16;96251.63;;;4.32;100.00
53916;BME280;39827;49.652;18.770;2023-03-22T03:03:46;96248.06;;;4.26;100.00
53916;BME280;39827;49.652;18.770;2023-03-22T03:06:17;96252.91;;;4.41;100.00
53916;BME280;39827;49.652;18.770;2023-03-22T03:08:45;96250.38;;;4.35;100.00
53916;BME280;39827;49.652;18.770;2023-03-22T03:11:11;96253.44;;;4.32;100.00
53916;BME280;39827;49.652;18.770;2023-03-22T03:13:36;96242.59;;;4.28;100.00
53916;BME280;39827;49.652;18.770;2023-03-22T03:16:02;96242.34;;;4.17;100.00
53916;BME280;39827;49.652;18.770;2023-03-22T03:18:41;96265.75;;;4.31;100.00
53916;BME280;39827;49.652;18.770;2023-03-22T03:21:28;96247.13;;;4.21;100.00
53916;BME280;39827;49.652;18.770;2023-03-22T03:29:32;96261.16;;;4.26;100.00
53916;BME280;39827;49.652;18.770;2023-03-22T03:32:09;96257.88;;;4.00;100.00
53916;BME280;39827;49.652;18.770;2023-03-22T03:37:29;96260.94;;;4.28;100.00
53916;BME280;39827;49.652;18.770;2023-03-22T03:40:05;96260.44;;;4.50;100.00
53916;BME280;39827;49.652;18.770;2023-03-22T03:42:36;96257.34;;;4.41;100.00
53916;BME280;39827;49.652;18.770;2023-03-22T03:45:03;96265.28;;;4.34;100.00
53916;BME280;39827;49.652;18.770;2023-03-22T03:47:30;96264.25;;;4.04;100.00
53916;BME280;39827;49.652;18.770;2023-03-22T03:49:56;96263.06;;;3.88;100.00
53916;BME280;39827;49.652;18.770;2023-03-22T03:52:22;96264.34;;;3.98;100.00
53916;BME280;39827;49.652;18.770;2023-03-22T03:54:49;96258.06;;;3.99;100.00
53916;BME280;39827;49.652;18.770;2023-03-22T03:57:14;96268.97;;;4.14;100.00
53916;BME280;39827;49.652;18.770;2023-03-22T03:59:41;96262.81;;;4.09;100.00
53916;BME280;39827;49.652;18.770;2023-03-22T04:02:06;96261.84;;;4.03;100.00
53916;BME280;39827;49.652;18.770;2023-03-22T04:04:32;96277.16;;;4.06;100.00
53916;BME280;39827;49.652;18.770;2023-03-22T04:06:59;96272.50;;;4.08;100.00
53916;BME280;39827;49.652;18.770;2023-03-22T04:09:26;96270.50;;;4.22;100.00
53916;BME280;39827;49.652;18.770;2023-03-22T04:11:53;96278.72;;;4.26;100.00
53916;BME280;39827;49.652;18.770;2023-03-22T04:14:19;96273.22;;;4.46;100.00
53916;BME280;39827;49.652;18.770;2023-03-22T04:16:45;96270.28;;;4.54;100.00
53916;BME280;39827;49.652;18.770;2023-03-22T04:19:11;96267.75;;;4.48;100.00
53916;BME280;39827;49.652;18.770;2023-03-22T04:21:36;96276.31;;;4.67;100.00
53916;BME280;39827;49.652;18.770;2023-03-22T04:24:03;96273.97;;;4.77;100.00
53916;BME280;39827;49.652;18.770;2023-03-22T04:26:28;96267.94;;;4.89;100.00
53916;BME280;39827;49.652;18.770;2023-03-22T04:28:54;96273.22;;;5.01;100.00
53916;BME280;39827;49.652;18.770;2023-03-22T04:31:20;96265.91;;;5.03;100.00
53916;BME280;39827;49.652;18.770;2023-03-22T04:33:46;96262.72;;;5.13;100.00
53916;BME280;39827;49.652;18.770;2023-03-22T04:36:13;96275.81;;;5.37;100.00
53916;BME280;39827;49.652;18.770;2023-03-22T04:38:42;96269.78;;;5.48;100.00
53916;BME280;39827;49.652;18.770;2023-03-22T04:41:08;96275.81;;;5.60;100.00
53916;BME280;39827;49.652;18.770;2023-03-22T04:43:33;96276.84;;;5.71;100.00
53916;BME280;39827;49.652;18.770;2023-03-22T04:46:03;96276.25;;;5.81;100.00
53916;BME280;39827;49.652;18.770;2023-03-22T04:48:28;96275.91;;;5.78;100.00
53916;BME280;39827;49.652;18.770;2023-03-22T04:50:55;96259.91;;;5.79;100.00
53916;BME280;39827;49.652;18.770;2023-03-22T04:53:20;96273.00;;;5.91;100.00
53916;BME280;39827;49.652;18.770;2023-03-22T04:55:52;96276.09;;;6.00;100.00
53916;BME280;39827;49.652;18.770;2023-03-22T04:58:21;96273.00;;;5.91;100.00
53916;BME280;39827;49.652;18.770;2023-03-22T05:00:47;96261.28;;;5.82;100.00
53916;BME280;39827;49.652;18.770;2023-03-22T05:03:12;96270.38;;;5.91;100.00
53916;BME280;39827;49.652;18.770;2023-03-22T05:05:37;96269.56;;;6.03;100.00
53916;BME280;39827;49.652;18.770;2023-03-22T05:08:03;96271.31;;;6.09;100.00
53916;BME280;39827;49.652;18.770;2023-03-22T05:10:31;96268.41;;;6.22;100.00
53916;BME280;39827;49.652;18.770;2023-03-22T05:12:56;96275.63;;;6.15;100.00
53916;BME280;39827;49.652;18.770;2023-03-22T05:15:21;96265.09;;;6.15;100.00
53916;BME280;39827;49.652;18.770;2023-03-22T05:17:47;96270.22;;;6.22;100.00
53916;BME280;39827;49.652;18.770;2023-03-22T05:20:12;96265.94;;;6.33;100.00
53916;BME280;39827;49.652;18.770;2023-03-22T05:22:39;96264.38;;;6.32;100.00
53916;BME280;39827;49.652;18.770;2023-03-22T05:25:06;96273.63;;;6.51;100.00
53916;BME280;39827;49.652;18.770;2023-03-22T05:27:32;96259.72;;;6.51;100.00
53916;BME280;39827;49.652;18.770;2023-03-22T05:29:59;96259.22;;;6.54;100.00
53916;BME280;39827;49.652;18.770;2023-03-22T05:32:26;96262.50;;;6.61;100.00
53916;BME280;39827;49.652;18.770;2023-03-22T05:34:53;96274.22;;;6.71;100.00
53916;BME280;39827;49.652;18.770;2023-03-22T05:37:19;96269.19;;;6.69;100.00
53916;BME280;39827;49.652;18.770;2023-03-22T05:39:45;96272.03;;;6.80;100.00
53916;BME280;39827;49.652;18.770;2023-03-22T05:42:10;96286.06;;;7.02;100.00
53916;BME280;39827;49.652;18.770;2023-03-22T05:44:36;96274.72;;;7.02;100.00
53916;BME280;39827;49.652;18.770;2023-03-22T05:47:01;96274.16;;;7.17;100.00
53916;BME280;39827;49.652;18.770;2023-03-22T05:49:27;96273.63;;;7.15;100.00
53916;BME280;39827;49.652;18.770;2023-03-22T05:51:52;96267.47;;;7.09;100.00
53916;BME280;39827;49.652;18.770;2023-03-22T05:54:17;96271.69;;;7.27;100.00
53916;BME280;39827;49.652;18.770;2023-03-22T05:56:43;96268.97;;;7.22;100.00
53916;BME280;39827;49.652;18.770;2023-03-22T05:59:08;96290.44;;;7.31;100.00
53916;BME280;39827;49.652;18.770;2023-03-22T06:01:34;96282.22;;;7.27;100.00
53916;BME280;39827;49.652;18.770;2023-03-22T06:04:00;96281.25;;;7.51;100.00
53916;BME280;39827;49.652;18.770;2023-03-22T06:06:25;96284.72;;;7.56;100.00
53916;BME280;39827;49.652;18.770;2023-03-22T06:08:52;96288.47;;;7.61;100.00
53916;BME280;39827;49.652;18.770;2023-03-22T06:11:18;96282.31;;;7.55;100.00
53916;BME280;39827;49.652;18.770;2023-03-22T06:13:43;96276.16;;;7.66;100.00
53916;BME280;39827;49.652;18.770;2023-03-22T06:16:09;96288.88;;;7.69;100.00
53916;BME280;39827;49.652;18.770;2023-03-22T06:18:34;96279.25;;;7.80;100.00
53916;BME280;39827;49.652;18.770;2023-03-22T06:21:00;96292.00;;;7.89;99.30
53916;BME280;39827;49.652;18.770;2023-03-22T06:23:26;96294.41;;;7.90;98.17
53916;BME280;39827;49.652;18.770;2023-03-22T06:25:52;96277.16;;;7.82;99.28
53916;BME280;39827;49.652;18.770;2023-03-22T06:28:17;96286.78;;;7.94;99.70
53916;BME280;39827;49.652;18.770;2023-03-22T06:30:43;96285.69;;;8.12;99.29
53916;BME280;39827;49.652;18.770;2023-03-22T06:33:08;96293.53;;;8.29;98.04
53916;BME280;39827;49.652;18.770;2023-03-22T06:35:34;96294.38;;;8.35;97.57
53916;BME280;39827;49.652;18.770;2023-03-22T06:37:59;96290.03;;;8.24;97.54
53916;BME280;39827;49.652;18.770;2023-03-22T06:40:25;96289.25;;;8.23;97.76
53916;BME280;39827;49.652;18.770;2023-03-22T06:42:51;96297.69;;;8.25;97.93
53916;BME280;39827;49.652;18.770;2023-03-22T06:45:19;96294.47;;;8.45;97.68
53916;BME280;39827;49.652;18.770;2023-03-22T06:47:44;96288.53;;;8.55;96.73
53916;BME280;39827;49.652;18.770;2023-03-22T06:50:10;96285.41;;;8.58;96.69
53916;BME280;39827;49.652;18.770;2023-03-22T06:52:35;96299.88;;;8.83;95.02
53916;BME280;39827;49.652;18.770;2023-03-22T06:55:01;96298.63;;;8.91;95.08
53916;BME280;39827;49.652;18.770;2023-03-22T06:57:26;96296.53;;;8.93;94.92
53916;BME280;39827;49.652;18.770;2023-03-22T06:59:52;96299.00;;;9.05;94.53
53916;BME280;39827;49.652;18.770;2023-03-22T07:02:17;96296.00;;;9.24;94.16
53916;BME280;39827;49.652;18.770;2023-03-22T07:04:44;96300.69;;;9.60;91.55
53916;BME280;39827;49.652;18.770;2023-03-22T07:07:10;96295.72;;;9.69;90.23
53916;BME280;39827;49.652;18.770;2023-03-22T07:09:35;96302.63;;;9.75;89.42
53916;BME280;39827;49.652;18.770;2023-03-22T07:12:01;96299.41;;;9.62;88.96
53916;BME280;39827;49.652;18.770;2023-03-22T07:14:27;96303.16;;;9.72;89.38
53916;BME280;39827;49.652;18.770;2023-03-22T07:16:52;96312.75;;;9.88;88.46
53916;BME280;39827;49.652;18.770;2023-03-22T07:19:17;96297.91;;;9.77;88.59
53916;BME280;39827;49.652;18.770;2023-03-22T07:21:43;96312.31;;;10.02;88.19
53916;BME280;39827;49.652;18.770;2023-03-22T07:24:08;96306.78;;;10.09;87.97
53916;BME280;39827;49.652;18.770;2023-03-22T07:26:37;96308.94;;;10.27;88.00
53916;BME280;39827;49.652;18.770;2023-03-22T07:29:02;96301.84;;;10.33;88.32
53916;BME280;39827;49.652;18.770;2023-03-22T07:31:27;96298.22;;;10.50;87.68
53916;BME280;39827;49.652;18.770;2023-03-22T07:33:53;96310.63;;;10.49;87.45
53916;BME280;39827;49.652;18.770;2023-03-22T07:36:18;96304.53;;;10.54;88.29
53916;BME280;39827;49.652;18.770;2023-03-22T07:38:50;96304.84;;;10.73;88.35
53916;BME280;39827;49.652;18.770;2023-03-22T07:41:16;96292.41;;;10.79;87.89
53916;BME280;39827;49.652;18.770;2023-03-22T07:43:42;96295.34;;;10.98;86.80
53916;BME280;39827;49.652;18.770;2023-03-22T07:46:07;96291.91;;;11.03;85.81
53916;BME280;39827;49.652;18.770;2023-03-22T07:48:33;96292.94;;;11.23;85.53
53916;BME280;39827;49.652;18.770;2023-03-22T07:50:58;96285.28;;;11.31;85.18
53916;BME280;39827;49.652;18.770;2023-03-22T07:53:24;96287.91;;;11.31;85.56
53916;BME280;39827;49.652;18.770;2023-03-22T07:55:49;96296.94;;;11.36;83.61
53916;BME280;39827;49.652;18.770;2023-03-22T07:58:15;96286.88;;;11.27;83.41
53916;BME280;39827;49.652;18.770;2023-03-22T08:00:40;96300.09;;;11.43;83.30
53916;BME280;39827;49.652;18.770;2023-03-22T08:03:06;96285.78;;;11.39;83.36
53916;BME280;39827;49.652;18.770;2023-03-22T08:05:31;96279.16;;;11.41;84.10
53916;BME280;39827;49.652;18.770;2023-03-22T08:07:56;96291.59;;;11.62;82.62
53916;BME280;39827;49.652;18.770;2023-03-22T08:10:22;96290.22;;;11.75;82.75
53916;BME280;39827;49.652;18.770;2023-03-22T08:12:47;96288.56;;;11.89;81.69
53916;BME280;39827;49.652;18.770;2023-03-22T08:15:13;96298.63;;;11.97;81.33
53916;BME280;39827;49.652;18.770;2023-03-22T08:17:38;96287.94;;;12.29;80.72
53916;BME280;39827;49.652;18.770;2023-03-22T08:20:04;96296.41;;;12.31;78.46
53916;BME280;39827;49.652;18.770;2023-03-22T08:22:33;96291.47;;;12.59;78.46
53916;BME280;39827;49.652;18.770;2023-03-22T08:24:59;96294.44;;;12.92;76.89
53916;BME280;39827;49.652;18.770;2023-03-22T08:27:24;96282.03;;;13.17;77.08
53916;BME280;39827;49.652;18.770;2023-03-22T08:29:50;96296.06;;;13.58;73.67
53916;BME280;39827;49.652;18.770;2023-03-22T08:32:16;96292.38;;;14.02;73.64
53916;BME280;39827;49.652;18.770;2023-03-22T08:34:42;96292.31;;;14.51;72.09
53916;BME280;39827;49.652;18.770;2023-03-22T08:37:09;96308.91;;;14.87;68.18
53916;BME280;39827;49.652;18.770;2023-03-22T08:39:35;96293.94;;;15.05;67.49
53916;BME280;39827;49.652;18.770;2023-03-22T08:42:01;96295.91;;;15.32;66.20
53916;BME280;39827;49.652;18.770;2023-03-22T08:44:27;96289.13;;;15.54;63.72
53916;BME280;39827;49.652;18.770;2023-03-22T08:46:52;96300.22;;;15.75;61.80
53916;BME280;39827;49.652;18.770;2023-03-22T08:49:18;96298.75;;;15.83;61.04
53916;BME280;39827;49.652;18.770;2023-03-22T08:51:43;96302.69;;;15.72;60.48
53916;BME280;39827;49.652;18.770;2023-03-22T08:54:09;96298.41;;;15.43;61.35
53916;BME280;39827;49.652;18.770;2023-03-22T08:56:35;96292.25;;;15.28;59.00
53916;BME280;39827;49.652;18.770;2023-03-22T08:59:05;96303.41;;;14.97;58.84
53916;BME280;39827;49.652;18.770;2023-03-22T09:01:31;96301.28;;;14.75;59.17
53916;BME280;39827;49.652;18.770;2023-03-22T09:03:56;96285.72;;;14.24;60.33
53916;BME280;39827;49.652;18.770;2023-03-22T09:06:22;96299.47;;;13.88;61.63
53916;BME280;39827;49.652;18.770;2023-03-22T09:08:50;96288.13;;;13.52;61.34
53916;BME280;39827;49.652;18.770;2023-03-22T09:11:16;96295.50;;;13.61;62.45
53916;BME280;39827;49.652;18.770;2023-03-22T09:13:42;96302.50;;;13.46;63.20
53916;BME280;39827;49.652;18.770;2023-03-22T09:16:08;96290.88;;;13.37;63.50
53916;BME280;39827;49.652;18.770;2023-03-22T09:18:34;96293.88;;;13.30;63.55
53916;BME280;39827;49.652;18.770;2023-03-22T09:21:00;96287.63;;;13.15;63.60
53916;BME280;39827;49.652;18.770;2023-03-22T09:23:25;96296.97;;;13.13;64.73
53916;BME280;39827;49.652;18.770;2023-03-22T09:25:51;96274.91;;;12.77;66.05
53916;BME280;39827;49.652;18.770;2023-03-22T09:28:17;96295.13;;;12.73;65.60
53916;BME280;39827;49.652;18.770;2023-03-22T09:30:43;96287.19;;;12.68;66.06
53916;BME280;39827;49.652;18.770;2023-03-22T09:33:09;96282.47;;;12.55;66.85
53916;BME280;39827;49.652;18.770;2023-03-22T09:35:39;96276.41;;;12.49;67.41
53916;BME280;39827;49.652;18.770;2023-03-22T09:38:05;96293.38;;;12.48;67.09
53916;BME280;39827;49.652;18.770;2023-03-22T09:40:31;96294.13;;;12.64;66.93
53916;BME280;39827;49.652;18.770;2023-03-22T09:43:03;96281.22;;;12.42;68.07
53916;BME280;39827;49.652;18.770;2023-03-22T09:45:34;96276.78;;;12.27;67.72
53916;BME280;39827;49.652;18.770;2023-03-22T09:48:05;96273.88;;;12.28;67.75
53916;BME280;39827;49.652;18.770;2023-03-22T09:50:43;96281.72;;;12.44;67.94
53916;BME280;39827;49.652;18.770;2023-03-22T09:53:12;96279.66;;;12.41;67.40
53916;BME280;39827;49.652;18.770;2023-03-22T09:55:50;96283.50;;;12.59;67.58
53916;BME280;39827;49.652;18.770;2023-03-22T09:58:39;96279.25;;;12.58;67.72
53916;BME280;39827;49.652;18.770;2023-03-22T10:06:35;96280.97;;;12.83;66.49
53916;BME280;39827;49.652;18.770;2023-03-22T10:14:53;96274.00;;;12.93;66.25
53916;BME280;39827;49.652;18.770;2023-03-22T10:17:24;96279.66;;;13.15;65.40
53916;BME280;39827;49.652;18.770;2023-03-22T10:22:25;96258.69;;;12.79;66.76
53916;BME280;39827;49.652;18.770;2023-03-22T10:24:54;96266.28;;;12.91;66.34
53916;BME280;39827;49.652;18.770;2023-03-22T10:27:22;96260.25;;;13.15;65.98
53916;BME280;39827;49.652;18.770;2023-03-22T10:30:16;96253.88;;;13.16;65.96
53916;BME280;39827;49.652;18.770;2023-03-22T10:32:59;96247.81;;;13.10;66.20
53916;BME280;39827;49.652;18.770;2023-03-22T10:35:26;96250.03;;;13.27;64.88
53916;BME280;39827;49.652;18.770;2023-03-22T10:37:53;96252.84;;;13.41;64.62
53916;BME280;39827;49.652;18.770;2023-03-22T10:40:24;96248.72;;;13.25;65.46
53916;BME280;39827;49.652;18.770;2023-03-22T10:42:58;96236.41;;;13.05;65.73
53916;BME280;39827;49.652;18.770;2023-03-22T10:45:25;96242.50;;;13.10;65.78
53916;BME280;39827;49.652;18.770;2023-03-22T10:50:43;96253.03;;;13.21;65.10
53916;BME280;39827;49.652;18.770;2023-03-22T10:53:47;96246.19;;;13.68;64.11
53916;BME280;39827;49.652;18.770;2023-03-22T10:56:16;96242.94;;;13.96;62.81
53916;BME280;39827;49.652;18.770;2023-03-22T10:58:44;96231.59;;;14.10;61.75
53916;BME280;39827;49.652;18.770;2023-03-22T11:01:15;96241.47;;;14.67;60.50
53916;BME280;39827;49.652;18.770;2023-03-22T11:03:50;96233.75;;;14.84;59.21
53916;BME280;39827;49.652;18.770;2023-03-22T11:06:18;96231.25;;;15.07;58.24
53916;BME280;39827;49.652;18.770;2023-03-22T11:09:01;96237.47;;;15.78;55.77
53916;BME280;39827;49.652;18.770;2023-03-22T11:11:38;96229.38;;;16.34;55.31
53916;BME280;39827;49.652;18.770;2023-03-22T11:16:58;96236.66;;;16.57;52.89
53916;BME280;39827;49.652;18.770;2023-03-22T11:19:27;96221.13;;;15.80;54.75
53916;BME280;39827;49.652;18.770;2023-03-22T11:21:56;96245.47;;;16.06;55.78
53916;BME280;39827;49.652;18.770;2023-03-22T11:24:24;96227.78;;;16.10;54.79
53916;BME280;39827;49.652;18.770;2023-03-22T11:27:23;96226.78;;;16.06;54.42
53916;BME280;39827;49.652;18.770;2023-03-22T11:29:51;96219.66;;;15.87;55.23
53916;BME280;39827;49.652;18.770;2023-03-22T11:32:31;96216.00;;;15.69;55.90
53916;BME280;39827;49.652;18.770;2023-03-22T11:35:22;96216.50;;;15.85;55.66
53916;BME280;39827;49.652;18.770;2023-03-22T11:37:52;96232.13;;;15.78;55.64
53916;BME280;39827;49.652;18.770;2023-03-22T11:42:46;96233.94;;;16.93;52.40
53916;BME280;39827;49.652;18.770;2023-03-22T11:45:23;96224.00;;;16.48;53.46
53916;BME280;39827;49.652;18.770;2023-03-22T11:47:49;96217.84;;;17.39;51.50
53916;BME280;39827;49.652;18.770;2023-03-22T11:50:29;96207.06;;;18.38;48.56
53916;BME280;39827;49.652;18.770;2023-03-22T11:52:55;96209.84;;;18.86;47.46
53916;BME280;39827;49.652;18.770;2023-03-22T11:55:21;96215.00;;;19.65;46.02
53916;BME280;39827;49.652;18.770;2023-03-22T11:57:48;96218.53;;;19.48;44.63
53916;BME280;39827;49.652;18.770;2023-03-22T12:00:20;96217.88;;;19.99;44.32
53916;BME280;39827;49.652;18.770;2023-03-22T12:03:05;96221.16;;;19.96;44.34
53916;BME280;39827;49.652;18.770;2023-03-22T12:05:36;96222.06;;;19.79;44.38
53916;BME280;39827;49.652;18.770;2023-03-22T12:08:12;96206.66;;;20.40;44.48
53916;BME280;39827;49.652;18.770;2023-03-22T12:10:43;96218.41;;;20.14;42.83
53916;BME280;39827;49.652;18.770;2023-03-22T12:15:49;96194.22;;;20.35;42.45
53916;BME280;39827;49.652;18.770;2023-03-22T12:18:22;96202.03;;;20.07;43.12
53916;BME280;39827;49.652;18.770;2023-03-22T12:20:55;96194.03;;;20.40;42.90
53916;BME280;39827;49.652;18.770;2023-03-22T12:23:23;96187.03;;;20.61;42.33
53916;BME280;39827;49.652;18.770;2023-03-22T12:25:55;96206.53;;;21.25;41.59
53916;BME280;39827;49.652;18.770;2023-03-22T12:31:39;96186.41;;;20.21;43.95
53916;BME280;39827;49.652;18.770;2023-03-22T12:34:14;96183.28;;;19.89;43.88
53916;BME280;39827;49.652;18.770;2023-03-22T12:36:44;96192.31;;;19.84;42.82
53916;BME280;39827;49.652;18.770;2023-03-22T12:39:23;96181.97;;;19.35;44.46
53916;BME280;39827;49.652;18.770;2023-03-22T12:41:52;96175.09;;;19.16;44.07
53916;BME280;39827;49.652;18.770;2023-03-22T12:44:31;96171.88;;;18.66;46.00
53916;BME280;39827;49.652;18.770;2023-03-22T12:49:38;96181.50;;;18.14;48.06
53916;BME280;39827;49.652;18.770;2023-03-22T12:52:16;96172.78;;;18.79;47.02
53916;BME280;39827;49.652;18.770;2023-03-22T12:54:42;96156.56;;;18.75;45.87
53916;BME280;39827;49.652;18.770;2023-03-22T12:57:09;96158.56;;;19.44;44.97
53916;BME280;39827;49.652;18.770;2023-03-22T12:59:35;96171.63;;;19.85;43.79
53916;BME280;39827;49.652;18.770;2023-03-22T13:02:17;96163.00;;;20.00;43.02
53916;BME280;39827;49.652;18.770;2023-03-22T13:04:57;96164.25;;;20.46;43.42
53916;BME280;39827;49.652;18.770;2023-03-22T13:09:55;96157.34;;;20.36;41.88
53916;BME280;39827;49.652;18.770;2023-03-22T13:30:04;96142.78;;;17.53;48.46
53916;BME280;39827;49.652;18.770;2023-03-22T13:32:34;96127.72;;;17.93;47.66
53916;BME280;39827;49.652;18.770;2023-03-22T13:35:02;96132.72;;;17.59;48.71
53916;BME280;39827;49.652;18.770;2023-03-22T13:37:29;96143.19;;;17.29;48.86
53916;BME280;39827;49.652;18.770;2023-03-22T13:40:00;96140.25;;;17.39;48.63
53916;BME280;39827;49.652;18.770;2023-03-22T13:42:44;96126.41;;;17.55;49.46
53916;BME280;39827;49.652;18.770;2023-03-22T13:45:27;96134.13;;;17.07;49.06
53916;BME280;39827;49.652;18.770;2023-03-22T13:48:11;96133.94;;;17.35;48.56
53916;BME280;39827;49.652;18.770;2023-03-22T13:50:51;96117.63;;;17.14;49.83
53916;BME280;39827;49.652;18.770;2023-03-22T13:53:26;96124.88;;;16.90;49.86
53916;BME280;39827;49.652;18.770;2023-03-22T13:56:00;96114.13;;;17.04;50.92
53916;BME280;39827;49.652;18.770;2023-03-22T13:58:36;96110.38;;;16.83;50.43
53916;BME280;39827;49.652;18.770;2023-03-22T14:01:33;96109.59;;;17.05;51.16
53916;BME280;39827;49.652;18.770;2023-03-22T14:04:05;96107.63;;;17.28;49.99
53916;BME280;39827;49.652;18.770;2023-03-22T14:06:42;96101.72;;;17.09;49.75
53916;BME280;39827;49.652;18.770;2023-03-22T14:09:22;96099.41;;;17.25;50.18
53916;BME280;39827;49.652;18.770;2023-03-22T14:12:17;96098.84;;;17.45;49.63
53916;BME280;39827;49.652;18.770;2023-03-22T14:14:46;96103.03;;;17.29;51.74
53916;BME280;39827;49.652;18.770;2023-03-22T14:17:41;96101.63;;;17.31;49.85
53916;BME280;39827;49.652;18.770;2023-03-22T14:20:16;96106.00;;;16.87;50.32
53916;BME280;39827;49.652;18.770;2023-03-22T14:22:48;96105.28;;;17.04;49.89
53916;BME280;39827;49.652;18.770;2023-03-22T14:25:18;96099.31;;;16.98;50.24
53916;BME280;39827;49.652;18.770;2023-03-22T14:27:45;96097.84;;;16.92;50.99
53916;BME280;39827;49.652;18.770;2023-03-22T14:32:51;96093.66;;;16.68;51.17
53916;BME280;39827;49.652;18.770;2023-03-22T14:35:24;96104.09;;;16.78;50.86
53916;BME280;39827;49.652;18.770;2023-03-22T14:37:52;96106.63;;;16.84;50.38
53916;BME280;39827;49.652;18.770;2023-03-22T14:40:36;96106.81;;;17.28;49.76
53916;BME280;39827;49.652;18.770;2023-03-22T14:45:43;96093.09;;;17.21;49.63